This is the latest recevied weather packets stored in our database for station/object N2XGL-1. If no packets are shown the sender has not sent any weather packets the latest 10 day(s).
| Time | Temp. | Humidity | Pressure | Rain* | Wind** | Luminosity | Snow |
|---|---|---|---|---|---|---|---|
| 1788150074 | 63° F | 73% | 756.2 mmHg | 0 in | - | - | - |
| 1788149742 | 63° F | 71% | 755.9 mmHg | 0 in | - | - | - |
| 1788149495 | 63° F | 71% | 755.9 mmHg | 0 in | - | - | - |
| 1788148896 | 63° F | 69% | 755.8 mmHg | 0 in | - | - | - |
| 1788148539 | 63° F | 71% | 755.8 mmHg | 0 in | - | - | - |
| 1788148411 | 63° F | 71% | 755.8 mmHg | 0 in | - | - | - |
| 1788147876 | 63° F | 73% | 755.8 mmHg | 0 in | - | - | - |
| 1788147345 | 63° F | 73% | 755.8 mmHg | 0 in | - | - | - |
| 1788147306 | 63° F | 73% | 755.8 mmHg | 0 in | - | - | - |
| 1788146745 | 63° F | 73% | 755.8 mmHg | 0 in | - | - | - |
| 1788146245 | 63° F | 71% | 755.7 mmHg | 0 in | - | - | - |
| 1788145735 | 64° F | 71% | 755.5 mmHg | 0 in | - | - | - |
| 1788145227 | 64° F | 72% | 755.4 mmHg | 0 in | - | - | - |
| 1788145185 | 64° F | 72% | 755.4 mmHg | 0 in | - | - | - |
| 1788144600 | 65° F | 73% | 755.5 mmHg | 0 in | - | - | - |
| 1788144016 | 65° F | 73% | 755.4 mmHg | 0 in | - | - | - |
| 1788143694 | 65° F | 72% | 755.2 mmHg | 0 in | - | - | - |
| 1788143445 | 65° F | 72% | 755.2 mmHg | 0 in | - | - | - |
| 1788142906 | 66° F | 71% | 755.1 mmHg | 0 in | - | - | - |
| 1788142335 | 66° F | 64% | 754.9 mmHg | 0 in | - | - | - |
| 1788141786 | 66° F | 64% | 754.9 mmHg | 0 in | - | - | - |
| 1788141343 | 67° F | 66% | 754.9 mmHg | 0 in | - | - | - |
| 1788141206 | 67° F | 66% | 754.9 mmHg | 0 in | - | - | - |
| 1788140621 | 67° F | 63% | 754.8 mmHg | 0 in | - | - | - |
| 1788140146 | 68° F | 64% | 754.7 mmHg | 0 in | - | - | - |
* Rain latest hour (hover to see other rain measurements)
** Current wind speed in m/s (hover to see current wind gust speed)